Time;durP1;ratioP1;P1;durP2;ratioP2;P2;SDS_P1;SDS_P2;PMS_P1;PMS_P2;Temp;Humidity;BMP_temperature;BMP_pressure;BME280_temperature;BME280_humidity;BME280_pressure;Samples;Min_cycle;Max_cycle;Signal;HPM_P1;HPM_P2
2022/04/21 00:00:46;;;;;;;4.95;4.15;;;9.30;99.90;;;;;;5133874;28;20198;-71
2022/04/21 00:03:13;;;;;;;5.35;4.72;;;9.30;99.90;;;;;;5134848;28;20198;-71
2022/04/21 00:05:39;;;;;;;6.20;4.32;;;9.30;99.90;;;;;;5134194;27;20585;-71
2022/04/21 00:08:06;;;;;;;5.65;4.25;;;9.30;99.90;;;;;;5138014;27;20226;-71
2022/04/21 00:10:33;;;;;;;4.75;3.90;;;9.30;99.90;;;;;;5137676;27;20198;-71
2022/04/21 00:12:59;;;;;;;9.23;4.07;;;9.20;99.90;;;;;;5138234;27;20280;-71
2022/04/21 00:15:26;;;;;;;4.97;3.80;;;9.10;99.90;;;;;;5137363;27;20259;-71
2022/04/21 00:17:53;;;;;;;5.22;4.28;;;9.10;99.90;;;;;;5138200;27;20202;-71
2022/04/21 00:20:22;;;;;;;5.07;3.97;;;9.10;99.90;;;;;;5138560;27;20201;-71
2022/04/21 00:25:33;;;;;;;4.65;4.25;;;9.00;99.90;;;;;;5137888;27;20279;-71
2022/04/21 00:28:00;;;;;;;4.38;3.85;;;9.00;99.90;;;;;;5138080;27;20205;-71
2022/04/21 00:30:27;;;;;;;6.15;5.30;;;8.90;99.90;;;;;;5138136;27;20198;-72
2022/04/21 00:32:53;;;;;;;4.80;4.40;;;8.80;99.90;;;;;;5137427;27;20202;-71
2022/04/21 00:35:19;;;;;;;4.72;4.35;;;8.80;99.90;;;;;;5137639;27;20202;-71
2022/04/21 00:37:57;;;;;;;4.20;3.90;;;8.80;99.90;;;;;;5119754;27;20206;-71
2022/04/21 00:40:26;;;;;;;4.50;4.20;;;8.70;99.90;;;;;;5137907;27;20194;-71
2022/04/21 00:42:54;;;;;;;5.85;4.28;;;8.60;99.90;;;;;;5137535;27;20206;-71
2022/04/21 00:45:20;;;;;;;4.70;4.40;;;8.60;99.90;;;;;;5135753;27;20222;-71
2022/04/21 00:47:48;;;;;;;5.13;4.07;;;8.60;99.90;;;;;;5119038;27;20218;-71
2022/04/21 00:50:36;;;;;;;4.07;3.75;;;8.50;99.90;;;;;;5136710;27;20190;-71
2022/04/21 00:53:03;;;;;;;5.30;4.90;;;8.50;99.90;;;;;;5136415;27;20308;-71
2022/04/21 00:55:31;;;;;;;5.20;4.70;;;8.50;99.90;;;;;;5101419;27;20214;-71
2022/04/21 00:58:01;;;;;;;6.75;4.20;;;8.50;99.90;;;;;;5136928;27;20206;-71
2022/04/21 01:00:27;;;;;;;5.50;4.80;;;8.50;99.90;;;;;;5137123;27;20208;-71
2022/04/21 01:02:54;;;;;;;5.55;5.05;;;8.50;99.90;;;;;;5118519;27;20202;-71
2022/04/21 01:05:28;;;;;;;4.50;4.10;;;8.50;99.90;;;;;;5136758;27;20237;-71
2022/04/21 01:08:00;;;;;;;5.20;4.75;;;8.40;99.90;;;;;;5136213;27;20204;-71
2022/04/21 01:10:29;;;;;;;9.65;4.95;;;8.40;99.90;;;;;;5137106;27;20193;-71
2022/04/21 01:12:56;;;;;;;7.70;4.90;;;8.30;99.90;;;;;;5136727;27;20661;-72
2022/04/21 01:15:22;;;;;;;5.15;4.75;;;8.20;99.90;;;;;;5118198;27;20224;-71
2022/04/21 01:17:51;;;;;;;5.65;5.10;;;8.20;99.90;;;;;;5135933;27;20202;-71
2022/04/21 01:20:19;;;;;;;5.88;4.82;;;8.20;99.90;;;;;;5136425;27;20198;-71
2022/04/21 01:22:46;;;;;;;10.05;4.85;;;8.20;99.90;;;;;;5136806;27;20194;-71
2022/04/21 01:25:13;;;;;;;5.50;5.10;;;8.20;99.90;;;;;;5136103;27;20194;-71
2022/04/21 01:27:41;;;;;;;5.40;5.00;;;8.10;99.90;;;;;;5135978;27;20579;-71
2022/04/21 01:30:09;;;;;;;5.50;5.10;;;8.10;99.90;;;;;;5136891;27;20259;-71
2022/04/21 01:32:36;;;;;;;5.18;4.68;;;8.30;99.90;;;;;;5117313;27;20202;-71
2022/04/21 01:35:05;;;;;;;10.05;5.80;;;8.30;99.90;;;;;;5134904;27;20239;-71
2022/04/21 01:43:03;;;;;;;5.60;4.70;;;8.50;99.90;;;;;;5136129;27;20183;-71
2022/04/21 01:45:29;;;;;;;6.07;5.63;;;8.50;99.90;;;;;;5135478;27;20543;-71
2022/04/21 01:47:56;;;;;;;8.70;4.97;;;8.50;99.90;;;;;;5136116;27;20668;-71
2022/04/21 01:50:24;;;;;;;5.57;5.15;;;8.40;99.90;;;;;;5137120;27;20202;-71
2022/04/21 01:52:50;;;;;;;5.35;4.85;;;8.30;99.90;;;;;;5136021;27;20237;-71
2022/04/21 01:55:17;;;;;;;9.82;5.43;;;8.20;99.90;;;;;;5136619;27;20603;-71
2022/04/21 01:57:43;;;;;;;7.03;5.80;;;8.20;99.90;;;;;;5136857;27;20198;-72
2022/04/21 02:00:10;;;;;;;5.97;5.45;;;8.10;99.90;;;;;;5137003;27;20202;-71
2022/04/21 02:02:37;;;;;;;5.90;5.50;;;8.10;99.90;;;;;;5117966;27;20208;-71
2022/04/21 02:05:03;;;;;;;6.90;5.75;;;8.00;99.90;;;;;;5118252;27;20209;-70
2022/04/21 02:07:30;;;;;;;8.93;5.05;;;7.90;99.90;;;;;;5136195;27;20606;-70
2022/04/21 02:09:57;;;;;;;8.48;4.80;;;7.80;99.90;;;;;;5136727;27;20241;-71
2022/04/21 02:12:24;;;;;;;6.72;5.25;;;7.80;99.90;;;;;;5136412;27;20202;-70
2022/04/21 02:14:51;;;;;;;5.50;5.00;;;7.70;99.90;;;;;;5136669;27;20656;-70
2022/04/21 02:17:19;;;;;;;5.18;4.57;;;7.70;99.90;;;;;;5136023;27;20205;-70
2022/04/21 02:19:46;;;;;;;9.02;5.90;;;7.60;99.90;;;;;;5136500;27;20198;-70
2022/04/21 02:22:13;;;;;;;5.30;4.80;;;7.60;99.90;;;;;;5135789;27;20190;-70
2022/04/21 02:24:40;;;;;;;5.60;5.13;;;7.60;99.90;;;;;;5135880;27;20209;-70
2022/04/21 02:27:06;;;;;;;5.68;5.28;;;7.60;99.90;;;;;;5117471;27;20201;-70
2022/04/21 02:29:33;;;;;;;7.00;5.50;;;7.50;99.90;;;;;;5118179;27;20201;-71
2022/04/21 02:32:01;;;;;;;6.68;6.07;;;7.50;99.90;;;;;;5136205;27;20516;-70
2022/04/21 02:34:29;;;;;;;6.97;5.22;;;7.50;99.90;;;;;;5136115;27;20205;-71
2022/04/21 02:36:56;;;;;;;5.57;5.18;;;7.50;99.90;;;;;;5119407;27;20214;-72
2022/04/21 02:39:25;;;;;;;6.07;5.50;;;7.50;99.90;;;;;;5136511;27;20188;-70
2022/04/21 02:41:52;;;;;;;5.75;5.05;;;7.40;99.90;;;;;;5135342;27;20646;-71
2022/04/21 02:44:19;;;;;;;5.63;5.18;;;7.40;99.90;;;;;;5135805;27;20201;-71
2022/04/21 02:46:45;;;;;;;7.40;5.35;;;7.30;99.90;;;;;;5135442;27;20304;-71
2022/04/21 02:49:14;;;;;;;6.95;5.32;;;7.30;99.90;;;;;;5134770;27;20657;-71
2022/04/21 02:51:41;;;;;;;14.35;5.45;;;7.30;99.90;;;;;;5117280;28;20217;-71
2022/04/21 02:59:37;;;;;;;5.72;5.25;;;7.20;99.90;;;;;;5135891;28;20511;-71
2022/04/21 03:02:04;;;;;;;5.78;5.38;;;7.30;99.90;;;;;;5135917;28;20198;-71
2022/04/21 03:04:30;;;;;;;8.07;6.00;;;7.40;99.90;;;;;;5135576;28;20722;-71
2022/04/21 03:06:56;;;;;;;6.05;5.45;;;7.40;99.90;;;;;;5135425;27;20214;-71
2022/04/21 03:09:23;;;;;;;7.10;6.50;;;7.30;99.90;;;;;;5135116;28;20230;-71
2022/04/21 03:11:49;;;;;;;5.78;5.35;;;7.20;99.90;;;;;;5135390;28;20657;-71
2022/04/21 03:14:18;;;;;;;7.15;5.20;;;7.10;99.90;;;;;;5135117;28;20645;-71
2022/04/21 03:16:44;;;;;;;7.35;5.55;;;7.00;99.90;;;;;;5134421;28;20634;-71
2022/04/21 03:19:12;;;;;;;5.95;5.45;;;7.00;99.90;;;;;;5134858;28;20213;-73
2022/04/21 03:24:23;;;;;;;6.22;5.63;;;6.90;99.90;;;;;;5134270;28;20209;-73
2022/04/21 03:26:53;;;;;;;10.00;5.90;;;6.80;99.90;;;;;;5134623;28;20201;-73
2022/04/21 03:29:20;;;;;;;6.07;5.57;;;6.80;99.90;;;;;;5134339;28;20570;-73
2022/04/21 03:31:48;;;;;;;7.95;5.80;;;6.70;99.90;;;;;;5116660;28;20231;-73
2022/04/21 03:34:19;;;;;;;7.72;6.05;;;6.70;99.90;;;;;;5133732;28;20201;-73
2022/04/21 03:36:48;;;;;;;8.30;5.45;;;6.60;99.90;;;;;;5134447;28;20218;-73
2022/04/21 03:39:16;;;;;;;6.25;5.65;;;6.60;99.90;;;;;;5133862;28;20198;-73
2022/04/21 03:41:43;;;;;;;7.50;6.07;;;6.60;99.90;;;;;;5134778;27;20194;-73
2022/04/21 03:44:11;;;;;;;6.20;5.70;;;6.60;99.90;;;;;;5138370;27;20194;-73
2022/04/21 03:46:40;;;;;;;7.97;6.55;;;6.60;99.90;;;;;;5138002;27;20201;-73
2022/04/21 03:49:07;;;;;;;6.95;6.35;;;6.60;99.90;;;;;;5138260;27;20250;-73
2022/04/21 03:51:34;;;;;;;7.68;6.90;;;6.60;99.90;;;;;;5138271;27;20258;-73
2022/04/21 03:54:01;;;;;;;7.10;6.40;;;6.50;99.90;;;;;;5137727;27;20205;-73
2022/04/21 03:56:27;;;;;;;6.90;6.30;;;6.50;99.90;;;;;;5137071;27;20222;-72
2022/04/21 03:58:54;;;;;;;7.95;6.80;;;6.50;99.90;;;;;;5119117;27;20629;-73
2022/04/21 04:01:20;;;;;;;7.38;6.32;;;6.50;99.90;;;;;;5102724;27;20653;-72
2022/04/21 04:03:47;;;;;;;7.63;6.47;;;6.40;99.90;;;;;;5137648;27;20601;-72
2022/04/21 04:11:43;;;;;;;12.65;7.28;;;6.40;99.90;;;;;;5138322;27;20193;-72
2022/04/21 04:14:09;;;;;;;7.85;6.72;;;6.40;99.90;;;;;;5137546;27;20194;-72
2022/04/21 04:16:37;;;;;;;8.13;7.00;;;6.40;99.90;;;;;;5138494;27;20579;-72
2022/04/21 04:19:07;;;;;;;10.52;8.38;;;6.40;99.90;;;;;;5137575;27;20202;-72
2022/04/21 04:21:38;;;;;;;12.95;9.07;;;6.40;99.90;;;;;;5137563;27;20202;-72
2022/04/21 04:24:04;;;;;;;8.02;7.32;;;6.50;99.90;;;;;;5119705;27;20615;-72
2022/04/21 04:26:34;;;;;;;9.55;7.72;;;6.50;99.90;;;;;;5138605;27;20193;-72
2022/04/21 04:29:03;;;;;;;10.10;9.10;;;6.50;99.90;;;;;;5138458;27;20198;-72
2022/04/21 04:31:31;;;;;;;10.88;8.75;;;6.40;99.90;;;;;;5138157;27;20235;-72
2022/04/21 04:33:57;;;;;;;10.10;9.10;;;6.40;99.90;;;;;;5137757;27;20541;-72
2022/04/21 04:36:23;;;;;;;15.13;11.65;;;6.30;99.90;;;;;;5137723;27;20222;-72
2022/04/21 04:38:50;;;;;;;13.77;10.90;;;6.30;99.90;;;;;;5137795;27;20194;-72
2022/04/21 04:44:02;;;;;;;9.75;7.75;;;6.30;99.90;;;;;;5138443;27;20181;-72
2022/04/21 04:46:38;;;;;;;9.25;7.72;;;6.40;99.90;;;;;;5138154;27;20197;-72
2022/04/21 04:49:08;;;;;;;8.05;7.35;;;6.40;99.90;;;;;;5137556;27;20204;-71
2022/04/21 04:51:38;;;;;;;7.75;6.88;;;6.40;99.90;;;;;;5137840;27;20198;-71
2022/04/21 04:54:06;;;;;;;7.72;6.93;;;6.50;99.90;;;;;;5136727;27;20204;-71
2022/04/21 04:56:34;;;;;;;10.80;7.90;;;6.50;99.90;;;;;;5137275;27;20745;-71
2022/04/21 04:59:01;;;;;;;9.93;7.88;;;6.60;99.90;;;;;;5137712;27;20221;-71
2022/04/21 05:01:45;;;;;;;9.18;7.85;;;6.60;99.90;;;;;;5137169;27;20654;-71
2022/04/21 05:04:15;;;;;;;7.97;7.18;;;6.70;99.90;;;;;;5137873;27;20178;-71
2022/04/21 05:06:44;;;;;;;8.10;7.30;;;6.70;99.90;;;;;;5137920;27;20229;-72
2022/04/21 05:09:13;;;;;;;12.38;7.20;;;6.70;99.90;;;;;;5136961;27;20242;-71
2022/04/21 05:11:42;;;;;;;9.35;8.45;;;6.70;99.90;;;;;;5137617;27;20210;-72
2022/04/21 05:14:09;;;;;;;12.38;8.88;;;6.70;99.90;;;;;;5136868;27;20665;-71
2022/04/21 05:16:37;;;;;;;9.77;8.40;;;6.80;99.90;;;;;;5137226;27;20226;-72
2022/04/21 05:19:04;;;;;;;9.57;7.90;;;6.70;99.90;;;;;;5118749;27;20194;-71
2022/04/21 05:21:32;;;;;;;8.40;7.60;;;6.80;99.90;;;;;;5137572;27;20547;-72
2022/04/21 05:23:59;;;;;;;8.55;7.80;;;6.80;99.90;;;;;;5137203;27;20194;-72
2022/04/21 05:26:29;;;;;;;8.73;7.93;;;6.90;99.90;;;;;;5136555;27;20227;-72
2022/04/21 05:28:58;;;;;;;9.40;8.60;;;6.90;99.90;;;;;;5137037;27;20198;-71
2022/04/21 05:31:27;;;;;;;9.10;7.32;;;7.00;99.90;;;;;;5136582;27;20197;-71
2022/04/21 05:33:54;;;;;;;12.70;7.55;;;7.10;99.90;;;;;;5136674;27;20194;-71
2022/04/21 05:36:21;;;;;;;9.95;7.45;;;7.10;99.90;;;;;;5136612;27;20210;-71
2022/04/21 05:38:51;;;;;;;9.38;8.40;;;7.20;99.90;;;;;;5102169;27;20194;-71
2022/04/21 05:41:19;;;;;;;9.18;8.38;;;7.20;99.90;;;;;;5137189;27;20213;-72
2022/04/21 05:43:49;;;;;;;20.90;9.65;;;7.20;99.90;;;;;;5136280;27;20206;-71
2022/04/21 05:46:16;;;;;;;13.52;7.68;;;7.30;99.90;;;;;;5135971;27;20197;-71
2022/04/21 05:48:43;;;;;;;8.15;7.35;;;7.40;99.90;;;;;;5136257;27;20728;-71
2022/04/21 05:51:11;;;;;;;8.45;7.47;;;7.50;99.90;;;;;;5117716;27;20210;-71
2022/04/21 05:53:40;;;;;;;11.68;7.75;;;7.50;99.90;;;;;;5118325;27;20225;-71
2022/04/21 05:56:07;;;;;;;8.55;7.65;;;7.60;99.90;;;;;;5136499;27;20652;-72
2022/04/21 05:58:37;;;;;;;10.00;8.15;;;7.70;99.90;;;;;;5117882;27;20205;-70
2022/04/21 06:01:09;;;;;;;8.98;8.07;;;7.80;99.90;;;;;;5137261;27;20660;-71
2022/04/21 06:03:41;;;;;;;8.48;7.50;;;7.80;99.90;;;;;;5117118;27;20507;-71
2022/04/21 06:06:09;;;;;;;9.70;8.07;;;7.80;99.90;;;;;;5136207;27;20218;-72
2022/04/21 06:08:36;;;;;;;12.82;10.07;;;7.80;99.90;;;;;;5118332;27;20739;-72
2022/04/21 06:11:03;;;;;;;9.93;9.02;;;7.90;99.90;;;;;;5135834;27;20262;-72
2022/04/21 06:13:36;;;;;;;9.95;8.90;;;7.90;99.90;;;;;;5136149;27;20193;-71
2022/04/21 06:16:02;;;;;;;9.20;8.30;;;8.00;99.90;;;;;;5117357;27;20591;-72
2022/04/21 06:18:28;;;;;;;10.32;9.32;;;8.10;99.90;;;;;;5136329;27;20198;-72
2022/04/21 06:20:55;;;;;;;12.52;9.90;;;8.10;99.90;;;;;;5136773;27;20186;-72
2022/04/21 06:23:21;;;;;;;14.52;8.50;;;8.20;99.90;;;;;;5135999;27;20193;-72
2022/04/21 06:26:17;;;;;;;8.98;7.40;;;8.30;99.90;;;;;;5137801;27;20249;-72
2022/04/21 06:28:44;;;;;;;9.20;8.32;;;8.40;99.90;;;;;;5123101;27;20186;-72
2022/04/21 06:31:10;;;;;;;14.95;8.63;;;8.50;99.90;;;;;;5136055;27;20196;-72
2022/04/21 06:33:37;;;;;;;11.23;8.65;;;8.60;99.90;;;;;;5135153;27;20618;-73
2022/04/21 06:36:06;;;;;;;9.48;8.50;;;8.90;99.90;;;;;;5137959;27;20225;-71
2022/04/21 06:38:32;;;;;;;8.50;7.70;;;8.90;99.90;;;;;;5137466;27;20277;-73
2022/04/21 06:40:58;;;;;;;9.63;8.65;;;9.00;99.90;;;;;;5138901;27;20277;-73
2022/04/21 06:49:08;;;;;;;11.57;8.80;;;9.60;99.90;;;;;;5120322;27;20518;-74
2022/04/21 06:51:34;;;;;;;15.10;8.50;;;9.80;99.90;;;;;;5134967;27;20206;-74
2022/04/21 06:54:01;;;;;;;9.48;8.55;;;10.00;99.90;;;;;;5135523;27;20209;-73
2022/04/21 06:56:27;;;;;;;9.23;8.30;;;10.30;99.90;;;;;;5135636;28;20586;-73
2022/04/21 06:58:55;;;;;;;9.73;8.70;;;10.40;99.90;;;;;;5117357;28;20194;-73
2022/04/21 07:01:22;;;;;;;10.80;9.00;;;10.60;99.90;;;;;;5134923;28;20193;-73
2022/04/21 07:03:48;;;;;;;9.85;7.75;;;10.40;99.90;;;;;;5116875;28;20221;-73
2022/04/21 07:06:15;;;;;;;11.65;8.60;;;10.50;99.90;;;;;;5135185;27;20248;-73
2022/04/21 07:08:41;;;;;;;10.52;9.20;;;10.70;99.90;;;;;;5135662;28;20230;-73
2022/04/21 07:11:08;;;;;;;18.13;10.15;;;10.80;99.90;;;;;;5135437;28;20202;-73
2022/04/21 07:13:34;;;;;;;10.68;9.55;;;10.70;99.90;;;;;;5134144;28;20569;-73
2022/04/21 07:16:01;;;;;;;9.70;8.73;;;10.70;99.90;;;;;;5135125;27;20193;-73
2022/04/21 07:18:27;;;;;;;14.25;8.95;;;10.70;99.90;;;;;;5138441;27;20201;-73
2022/04/21 07:20:54;;;;;;;10.32;9.20;;;10.80;99.90;;;;;;5121274;27;20205;-73
2022/04/21 07:23:20;;;;;;;10.27;8.75;;;10.90;99.90;;;;;;5121424;27;20230;-73
2022/04/21 07:25:46;;;;;;;10.73;9.73;;;11.10;99.90;;;;;;5138850;27;20198;-73
2022/04/21 07:28:13;;;;;;;14.18;8.80;;;11.20;99.90;;;;;;5139494;27;20677;-73
2022/04/21 07:30:39;;;;;;;9.73;8.93;;;11.10;99.90;;;;;;5138455;27;20206;-73
2022/04/21 07:33:06;;;;;;;10.25;9.18;;;11.10;99.90;;;;;;5138986;27;20209;-73
2022/04/21 07:35:34;;;;;;;11.68;9.15;;;11.10;99.90;;;;;;5120417;27;20209;-73
2022/04/21 07:38:00;;;;;;;11.48;8.57;;;11.20;99.90;;;;;;5138832;27;20217;-73
2022/04/21 07:40:27;;;;;;;10.63;9.55;;;11.30;99.90;;;;;;5138712;27;20190;-73
2022/04/21 07:42:54;;;;;;;10.88;9.88;;;11.30;99.90;;;;;;5138983;27;20657;-73
2022/04/21 07:45:21;;;;;;;11.63;10.55;;;11.20;99.90;;;;;;5120139;27;20198;-73
2022/04/21 07:47:47;;;;;;;11.95;10.68;;;11.30;99.90;;;;;;5120126;27;20203;-73
2022/04/21 07:50:13;;;;;;;11.73;10.52;;;11.40;99.90;;;;;;5138443;27;20572;-73
2022/04/21 07:53:13;;;;;;;14.77;10.65;;;11.60;99.90;;;;;;5139116;27;20198;-73
2022/04/21 07:55:33;;;;;;;17.45;10.27;;;11.70;99.90;;;;;;5134858;27;20212;-74
2022/04/21 07:57:59;;;;;;;12.20;10.90;;;11.90;99.90;;;;;;5138574;27;20217;-73
2022/04/21 08:00:26;;;;;;;12.45;10.68;;;12.10;99.90;;;;;;5139323;27;20559;-73
2022/04/21 08:02:52;;;;;;;11.10;10.00;;;12.00;99.90;;;;;;5137877;27;20202;-74
2022/04/21 08:05:21;;;;;;;11.23;10.07;;;12.00;99.90;;;;;;5138430;27;20638;-73
2022/04/21 08:07:49;;;;;;;18.98;10.00;;;12.00;99.90;;;;;;5138583;27;20604;-73
2022/04/21 08:10:15;;;;;;;10.65;9.65;;;12.30;99.90;;;;;;5138359;27;20190;-73
2022/04/21 08:12:49;;;;;;;11.50;10.45;;;12.50;99.90;;;;;;5137700;27;20625;-73
2022/04/21 08:15:29;;;;;;;11.40;10.35;;;12.40;99.90;;;;;;5138349;27;20186;-73
2022/04/21 08:18:01;;;;;;;12.37;10.67;;;12.30;99.90;;;;;;5137537;27;20683;-73
2022/04/21 08:20:29;;;;;;;10.73;9.70;;;12.30;99.90;;;;;;5138336;27;20722;-73
2022/04/21 08:22:56;;;;;;;10.83;9.93;;;12.40;99.90;;;;;;5138148;27;20201;-73
2022/04/21 08:33:37;;;;;;;12.40;9.15;;;13.10;99.90;;;;;;5137540;27;20579;-73
2022/04/21 08:36:05;;;;;;;10.10;9.17;;;13.20;99.90;;;;;;5137950;27;20554;-74
2022/04/21 08:38:33;;;;;;;9.57;8.67;;;13.50;99.90;;;;;;5137115;27;20767;-73
2022/04/21 08:41:09;;;;;;;9.37;8.53;;;13.40;99.90;;;;;;5137128;27;20603;-73
2022/04/21 08:43:36;;;;;;;11.53;6.50;;;13.60;99.90;;;;;;5136570;27;20607;-73
2022/04/21 08:46:04;;;;;;;7.80;6.50;;;13.50;99.90;;;;;;5137609;27;20607;-73
2022/04/21 08:48:31;;;;;;;5.57;5.17;;;13.70;99.90;;;;;;5137459;27;20611;-73
2022/04/21 08:51:00;;;;;;;5.93;5.53;;;13.90;99.90;;;;;;5136612;27;20678;-73
2022/04/21 08:53:27;;;;;;;5.57;5.07;;;13.60;99.90;;;;;;5137291;27;20607;-73
2022/04/21 08:55:53;;;;;;;5.73;5.23;;;13.70;99.90;;;;;;5137402;27;20619;-73
2022/04/21 08:58:20;;;;;;;5.00;4.60;;;13.80;99.90;;;;;;5137346;27;20655;-73
2022/04/21 09:00:47;;;;;;;4.83;4.50;;;13.90;99.90;;;;;;5137547;27;20613;-73
2022/04/21 09:03:15;;;;;;;5.27;4.80;;;13.80;99.90;;;;;;5136477;27;20695;-74
2022/04/21 09:05:44;;;;;;;5.97;5.40;;;13.90;99.90;;;;;;5137062;27;20642;-73
2022/04/21 09:08:21;;;;;;;5.67;5.17;;;13.80;99.90;;;;;;5136574;27;20655;-73
2022/04/21 09:11:08;;;;;;;6.23;5.73;;;13.80;99.90;;;;;;5136703;27;20730;-73
2022/04/21 09:13:39;;;;;;;5.60;5.20;;;13.80;99.90;;;;;;5137055;27;20972;-75
2022/04/21 09:16:08;;;;;;;6.30;5.90;;;14.00;99.90;;;;;;5137346;27;20546;-73
2022/04/21 09:18:39;;;;;;;8.50;6.30;;;14.30;99.90;;;;;;5137274;27;20651;-73
2022/04/21 09:21:11;;;;;;;6.27;5.77;;;14.70;99.90;;;;;;5137795;27;20609;-73
2022/04/21 09:23:38;;;;;;;7.20;5.13;;;14.90;99.90;;;;;;5137400;27;20614;-74
2022/04/21 09:26:11;;;;;;;6.43;5.83;;;15.20;99.90;;;;;;5137719;27;20936;-73
2022/04/21 09:28:38;;;;;;;6.40;5.17;;;14.70;99.90;;;;;;5117830;27;20616;-74
2022/04/21 09:31:09;;;;;;;8.33;5.67;;;14.80;99.90;;;;;;5136277;27;20619;-73
2022/04/21 09:33:37;;;;;;;5.80;5.27;;;14.80;99.90;;;;;;5135675;27;20619;-73
2022/04/21 09:36:06;;;;;;;7.20;5.80;;;15.20;99.90;;;;;;5136205;27;21179;-73
2022/04/21 09:38:36;;;;;;;7.40;5.63;;;15.30;99.90;;;;;;5117567;27;20898;-73
2022/04/21 09:41:06;;;;;;;6.80;5.43;;;15.30;99.90;;;;;;5135497;27;20580;-71
2022/04/21 09:43:33;;;;;;;13.83;5.53;;;15.50;99.90;;;;;;5135508;27;20620;-71
2022/04/21 09:46:15;;;;;;;4.97;4.57;;;15.30;99.90;;;;;;5136429;27;20586;-71
2022/04/21 09:48:43;;;;;;;6.43;5.93;;;15.40;99.90;;;;;;5134981;27;20619;-71
2022/04/21 09:51:14;;;;;;;7.33;5.53;;;15.40;99.90;;;;;;5135639;27;20600;-71
2022/04/21 09:53:57;;;;;;;7.67;5.80;;;15.60;99.90;;;;;;5118521;27;20582;-71
2022/04/21 09:56:33;;;;;;;6.80;6.20;;;15.40;99.90;;;;;;5136256;27;20623;-71
2022/04/21 09:59:07;;;;;;;9.63;5.20;;;15.60;99.90;;;;;;5136025;27;20551;-72
2022/04/21 10:01:36;;;;;;;8.93;5.83;;;15.80;99.90;;;;;;5135524;27;20620;-72
2022/04/21 10:04:06;;;;;;;6.77;4.80;;;15.90;99.90;;;;;;5135718;27;21134;-72
2022/04/21 10:06:33;;;;;;;6.27;5.87;;;16.00;99.90;;;;;;5117306;27;20640;-72
2022/04/21 10:09:00;;;;;;;9.10;4.87;;;16.00;99.90;;;;;;5135245;27;20652;-71
2022/04/21 10:11:28;;;;;;;9.63;5.20;;;16.30;99.90;;;;;;5136057;27;20584;-72
2022/04/21 10:13:56;;;;;;;5.03;4.70;;;16.80;99.90;;;;;;5117289;27;20688;-71
2022/04/21 10:16:28;;;;;;;4.40;4.10;;;16.50;99.90;;;;;;5136322;27;20635;-71
2022/04/21 10:18:57;;;;;;;3.87;3.67;;;16.30;99.90;;;;;;5135459;27;21184;-71
2022/04/21 10:21:32;;;;;;;5.57;4.77;;;16.50;99.90;;;;;;5135992;27;21093;-72
2022/04/21 10:23:59;;;;;;;6.40;4.80;;;15.90;99.90;;;;;;5135705;27;20705;-72
2022/04/21 10:26:41;;;;;;;6.60;4.70;;;15.90;99.90;;;;;;5135449;27;20979;-71
2022/04/21 10:29:26;;;;;;;4.50;4.13;;;16.30;99.90;;;;;;5135454;27;20560;-71
2022/04/21 10:32:03;;;;;;;4.80;4.40;;;16.60;99.90;;;;;;5135944;27;20568;-72
2022/04/21 10:34:34;;;;;;;4.47;4.17;;;16.80;99.90;;;;;;5135862;27;20615;-72
2022/04/21 10:37:19;;;;;;;7.70;4.30;;;16.80;99.90;;;;;;5134769;27;20659;-72
2022/04/21 10:40:07;;;;;;;7.23;3.73;;;16.50;99.90;;;;;;5135598;27;20615;-72
2022/04/21 10:42:52;;;;;;;5.10;4.70;;;16.30;99.90;;;;;;5135315;27;20560;-72
2022/04/21 10:45:23;;;;;;;5.03;4.63;;;16.40;99.90;;;;;;5135556;27;20698;-72
2022/04/21 10:48:12;;;;;;;4.47;4.10;;;16.50;99.90;;;;;;5117042;27;20624;-72
2022/04/21 10:50:40;;;;;;;5.33;4.97;;;16.50;99.90;;;;;;5135040;27;21173;-72
2022/04/21 10:58:42;;;;;;;5.63;5.23;;;16.60;99.90;;;;;;5135142;28;20627;-71
2022/04/21 11:01:15;;;;;;;11.30;5.63;;;17.20;99.90;;;;;;5134724;28;20607;-71
2022/04/21 11:03:43;;;;;;;4.33;4.03;;;17.30;99.90;;;;;;5135292;28;20576;-72
2022/04/21 11:06:14;;;;;;;5.03;4.63;;;17.40;99.90;;;;;;5135395;27;20635;-72
2022/04/21 11:08:42;;;;;;;4.77;4.37;;;17.70;99.90;;;;;;5134892;28;20676;-72
2022/04/21 11:11:09;;;;;;;3.67;3.47;;;17.50;99.90;;;;;;5135150;28;20615;-72
2022/04/21 11:13:52;;;;;;;5.50;4.00;;;16.90;99.90;;;;;;5117043;28;20616;-72
2022/04/21 11:16:40;;;;;;;9.90;4.10;;;17.30;99.90;;;;;;5135724;28;20591;-72
2022/04/21 11:19:28;;;;;;;3.73;3.43;;;17.80;99.90;;;;;;5134475;28;20623;-73
2022/04/21 11:22:09;;;;;;;2.30;2.20;;;18.50;99.90;;;;;;5134435;28;20607;-72
2022/04/21 11:25:11;;;;;;;3.10;2.87;;;18.40;99.90;;;;;;5134595;28;20583;-72
2022/04/21 11:27:42;;;;;;;8.60;2.40;;;17.50;99.90;;;;;;5031660;28;20743;-72
2022/04/21 11:30:12;;;;;;;2.70;2.50;;;17.50;99.90;;;;;;5117777;28;20620;-73
2022/04/21 11:32:38;;;;;;;2.33;2.23;;;18.30;99.90;;;;;;5134779;28;21157;-72
2022/04/21 11:35:09;;;;;;;2.60;2.40;;;18.60;99.90;;;;;;5134602;28;21081;-72
2022/04/21 11:37:51;;;;;;;2.90;2.20;;;18.00;99.90;;;;;;5134178;28;20659;-72
2022/04/21 11:40:18;;;;;;;4.93;2.70;;;18.10;99.90;;;;;;5134748;28;20650;-73
2022/04/21 11:42:44;;;;;;;2.83;2.37;;;18.20;99.90;;;;;;5134722;28;20615;-72
2022/04/21 11:45:11;;;;;;;2.10;2.00;;;18.80;99.90;;;;;;5135155;28;20604;-72
2022/04/21 11:47:38;;;;;;;2.60;2.50;;;19.40;99.90;;;;;;5135516;28;20603;-73
2022/04/21 11:50:05;;;;;;;7.90;2.80;;;19.80;99.90;;;;;;5134753;28;20614;-73
2022/04/21 11:52:31;;;;;;;4.47;2.53;;;20.50;99.90;;;;;;5134409;28;21166;-73
2022/04/21 11:55:04;;;;;;;2.77;2.33;;;19.60;99.90;;;;;;5134895;28;21000;-73
2022/04/21 11:57:41;;;;;;;3.00;2.67;;;19.80;99.90;;;;;;5135437;28;20651;-73
2022/04/21 12:00:08;;;;;;;3.17;3.03;;;20.20;99.90;;;;;;5116254;28;20618;-73
2022/04/21 12:08:12;;;;;;;3.47;2.20;;;18.80;99.90;;;;;;5138938;27;21231;-72
2022/04/21 12:10:39;;;;;;;6.20;2.33;;;19.50;99.90;;;;;;5138358;27;20615;-72
2022/04/21 12:13:05;;;;;;;6.57;2.33;;;19.40;99.90;;;;;;5138996;27;20611;-72
2022/04/21 12:15:32;;;;;;;3.00;2.40;;;19.70;99.90;;;;;;5139194;27;20618;-73
2022/04/21 12:18:02;;;;;;;2.57;2.47;;;19.70;99.90;;;;;;5139162;27;20644;-73
2022/04/21 12:20:29;;;;;;;2.90;2.60;;;19.80;99.90;;;;;;5138777;27;20603;-73
2022/04/21 12:22:56;;;;;;;2.63;2.47;;;20.20;99.90;;;;;;5138733;27;20930;-72
2022/04/21 12:25:32;;;;;;;6.03;2.60;;;19.30;99.90;;;;;;5138365;27;20641;-72
2022/04/21 12:28:04;;;;;;;2.93;2.73;;;19.80;99.90;;;;;;5138384;27;20586;-73
2022/04/21 12:30:30;;;;;;;5.30;2.50;;;19.70;99.90;;;;;;5137841;27;20623;-72
2022/04/21 12:32:57;;;;;;;2.43;2.27;;;19.60;99.90;;;;;;5138684;27;20615;-73
2022/04/21 12:35:44;;;;;;;6.33;2.80;;;20.10;99.90;;;;;;5119520;27;20623;-73
2022/04/21 12:40:59;;;;;;;2.80;2.60;;;20.50;99.90;;;;;;5138415;27;20579;-72
2022/04/21 12:43:30;;;;;;;2.93;2.73;;;20.20;99.90;;;;;;5137566;27;20705;-73
2022/04/21 12:46:00;;;;;;;6.73;3.67;;;20.20;99.90;;;;;;5137391;27;20622;-73
2022/04/21 12:48:28;;;;;;;3.00;2.90;;;20.50;99.90;;;;;;5138061;27;20603;-73
2022/04/21 12:50:59;;;;;;;8.13;3.47;;;20.90;99.90;;;;;;5137602;27;20620;-73
2022/04/21 12:53:27;;;;;;;3.50;3.20;;;20.90;99.90;;;;;;5137897;27;20609;-73
2022/04/21 12:55:55;;;;;;;3.63;3.40;;;21.10;99.90;;;;;;5138135;27;20614;-73
2022/04/21 12:58:31;;;;;;;3.20;2.93;;;21.80;99.90;;;;;;5119214;27;21056;-73
2022/04/21 13:01:01;;;;;;;3.50;3.20;;;21.50;99.90;;;;;;5136861;27;20626;-73
2022/04/21 13:03:28;;;;;;;6.40;3.20;;;21.20;99.90;;;;;;5137188;27;20955;-73
2022/04/21 13:05:57;;;;;;;3.77;3.50;;;20.80;99.90;;;;;;5136511;27;20673;-73
2022/04/21 13:08:28;;;;;;;4.33;3.30;;;21.00;99.90;;;;;;5136185;27;20651;-77
2022/04/21 13:10:57;;;;;;;4.40;3.33;;;21.10;99.90;;;;;;5136963;27;20545;-72
2022/04/21 13:13:24;;;;;;;2.90;2.80;;;21.20;99.90;;;;;;5137074;27;20960;-73
2022/04/21 13:15:50;;;;;;;4.63;3.20;;;21.00;99.90;;;;;;5136316;27;20607;-72
2022/04/21 13:18:17;;;;;;;4.50;3.00;;;21.00;99.90;;;;;;5136934;27;20651;-73
2022/04/21 13:23:29;;;;;;;7.57;3.93;;;21.10;99.90;;;;;;5136957;27;20583;-72
2022/04/21 13:25:56;;;;;;;5.60;4.07;;;22.00;99.90;;;;;;5137133;27;20603;-73
2022/04/21 13:28:22;;;;;;;4.30;3.93;;;21.20;99.90;;;;;;5137290;27;20615;-73
2022/04/21 13:33:21;;;;;;;3.60;3.37;;;21.00;99.90;;;;;;5136535;27;20622;-73
2022/04/21 13:33:35;;;;;;;3.60;3.40;;;21.90;99.90;;;;;;5136683;27;21158;-73
2022/04/21 13:36:04;;;;;;;5.90;3.67;;;21.50;99.90;;;;;;5135751;27;20623;-73
2022/04/21 13:38:30;;;;;;;9.07;4.63;;;20.30;99.90;;;;;;5136953;27;20651;-72
2022/04/21 13:40:57;;;;;;;7.70;4.17;;;20.10;99.90;;;;;;5136209;27;21222;-73
2022/04/21 13:43:23;;;;;;;5.40;3.50;;;19.50;99.90;;;;;;5137131;27;20618;-73
2022/04/21 13:45:50;;;;;;;4.30;3.73;;;19.60;99.90;;;;;;5136131;27;20631;-73
2022/04/21 13:48:17;;;;;;;5.17;4.67;;;19.90;99.90;;;;;;5135559;27;21178;-73
2022/04/21 13:50:43;;;;;;;4.93;4.50;;;19.50;99.90;;;;;;5118195;27;20612;-72
2022/04/21 13:53:09;;;;;;;4.70;4.20;;;19.00;99.90;;;;;;5135965;27;20628;-71
2022/04/21 13:55:36;;;;;;;4.80;4.40;;;19.20;99.90;;;;;;5136247;27;20619;-72